Time;durP1;ratioP1;P1;durP2;ratioP2;P2;SDS_P1;SDS_P2;PMS_P1;PMS_P2;Temp;Humidity;BMP_temperature;BMP_pressure;BME280_temperature;BME280_humidity;BME280_pressure;Samples;Min_cycle;Max_cycle;Signal;HPM_P1;HPM_P2
2022/06/04 00:00:18;;;;;;;12.50;8.10;;;;;;;10.57;100.00;102061.00;5011334;28;20659;-51
2022/06/04 00:02:45;;;;;;;15.00;7.55;;;;;;;10.58;100.00;102062.75;5010918;28;20188;-49
2022/06/04 00:05:15;;;;;;;11.93;7.35;;;;;;;10.56;100.00;102059.22;5011763;28;20177;-52
2022/06/04 00:07:41;;;;;;;9.15;6.78;;;;;;;10.50;100.00;102063.78;5011048;28;20702;-52
2022/06/04 00:15:39;;;;;;;12.55;8.25;;;;;;;10.28;100.00;102065.91;5011913;28;20177;-48
2022/06/04 00:18:05;;;;;;;14.73;8.35;;;;;;;10.31;100.00;102062.34;5011992;28;20311;-48
2022/06/04 00:20:30;;;;;;;13.77;7.85;;;;;;;10.42;100.00;102075.53;5012299;28;20188;-48
2022/06/04 00:22:58;;;;;;;16.02;8.20;;;;;;;10.37;100.00;102069.41;5011371;28;20209;-50
2022/06/04 00:25:23;;;;;;;10.23;7.80;;;;;;;10.30;100.00;102071.28;5017422;28;20160;-48
2022/06/04 00:27:48;;;;;;;8.85;7.10;;;;;;;10.45;100.00;102067.44;5063396;28;20199;-50
2022/06/04 00:30:14;;;;;;;10.60;7.40;;;;;;;10.47;nan;102063.84;5031634;28;20187;-50
2022/06/04 00:32:39;;;;;;;12.55;7.40;;;;;;;10.42;100.00;102060.34;5031565;28;20168;-53
2022/06/04 00:35:06;;;;;;;12.13;7.10;;;;;;;10.46;100.00;102064.75;5030911;28;20164;-49
2022/06/04 00:37:35;;;;;;;8.07;5.88;;;;;;;10.43;100.00;102069.25;5031600;28;20190;-47
2022/06/04 00:40:06;;;;;;;10.40;6.35;;;;;;;10.46;100.00;102061.19;5031236;28;20257;-51
2022/06/04 00:42:31;;;;;;;8.90;5.85;;;;;;;10.43;100.00;102071.94;5031151;28;20164;-48
2022/06/04 00:45:15;;;;;;;9.63;6.32;;;;;;;10.47;100.00;102065.63;5031038;28;20173;-49
2022/06/04 00:47:41;;;;;;;10.77;5.75;;;;;;;10.57;100.00;102074.38;5031076;28;20246;-48
2022/06/04 00:50:08;;;;;;;9.02;6.22;;;;;;;10.60;100.00;102075.19;5031003;28;20167;-52
2022/06/04 00:52:34;;;;;;;9.73;5.95;;;;;;;10.58;100.00;102079.69;5030935;28;20164;-45
2022/06/04 00:55:03;;;;;;;10.20;6.18;;;;;;;10.38;100.00;102073.81;5031224;28;20164;-48
2022/06/04 00:57:53;;;;;;;9.00;6.47;;;;;;;10.28;100.00;102071.28;5031502;28;20203;-47
2022/06/04 01:00:24;;;;;;;8.98;6.50;;;;;;;10.33;100.00;102063.19;5030948;28;20168;-50
2022/06/04 01:02:52;;;;;;;16.85;6.75;;;;;;;10.37;100.00;102053.31;5031237;28;20187;-49
2022/06/04 01:05:48;;;;;;;11.43;6.80;;;;;;;10.40;100.00;102063.97;5030472;28;20251;-47
2022/06/04 01:08:35;;;;;;;7.47;6.63;;;;;;;10.46;100.00;102063.88;5031026;28;20200;-52
2022/06/04 01:11:30;;;;;;;8.63;6.45;;;;;;;10.48;100.00;102064.72;5030644;28;21005;-48
2022/06/04 01:14:05;;;;;;;10.07;5.97;;;;;;;10.52;100.00;102069.13;5029454;28;20218;-49
2022/06/04 01:16:37;;;;;;;11.60;6.72;;;;;;;10.55;100.00;102073.53;5021196;28;20570;-49
2022/06/04 01:19:21;;;;;;;10.30;6.53;;;;;;;10.55;99.83;102076.22;5021321;28;20168;-47
2022/06/04 01:21:50;;;;;;;6.13;5.53;;;;;;;10.60;99.49;102067.16;5030641;28;20209;-51
2022/06/04 01:24:35;;;;;;;10.70;6.20;;;;;;;10.55;99.83;102079.78;5030083;28;20269;-47
2022/06/04 01:27:01;;;;;;;11.45;6.50;;;;;;;10.51;99.68;102078.06;5010663;28;20212;-46
2022/06/04 01:29:36;;;;;;;9.70;5.97;;;;;;;10.51;99.65;102078.94;5010479;28;20181;-48
2022/06/04 01:32:16;;;;;;;12.35;6.13;;;;;;;10.50;99.61;102077.19;5010931;28;20181;-46
2022/06/04 01:35:02;;;;;;;9.23;6.35;;;;;;;10.52;99.35;102078.03;5009934;28;20695;-46
2022/06/04 01:37:31;;;;;;;8.07;6.20;;;;;;;10.55;99.13;102066.38;5010766;28;20655;-46
2022/06/04 01:42:48;;;;;;;11.20;6.00;;;;;;;10.59;98.60;102065.41;5010479;28;20230;-45
2022/06/04 01:45:18;;;;;;;7.32;6.05;;;;;;;10.62;98.61;102068.00;5010486;28;20526;-45
2022/06/04 01:47:47;;;;;;;8.57;5.57;;;;;;;10.63;98.33;102071.59;5010351;28;20193;-45
2022/06/04 01:50:19;;;;;;;6.78;5.90;;;;;;;10.60;98.37;102072.53;5010622;28;20547;-46
2022/06/04 01:52:47;;;;;;;8.35;6.03;;;;;;;10.65;98.03;102075.16;5010218;28;20638;-44
2022/06/04 01:55:18;;;;;;;8.02;6.43;;;;;;;10.65;97.81;102059.94;5010137;28;20239;-45
2022/06/04 01:57:53;;;;;;;7.65;6.10;;;;;;;10.66;97.56;102060.81;5010443;28;20173;-45
2022/06/04 02:00:36;;;;;;;8.30;6.20;;;;;;;10.70;97.38;102071.44;5010543;28;20650;-45
2022/06/04 02:03:08;;;;;;;9.77;6.53;;;;;;;10.66;97.47;102068.84;5010551;28;20204;-48
2022/06/04 02:05:46;;;;;;;12.90;6.80;;;;;;;10.65;97.31;102067.97;5010166;28;20193;-48
2022/06/04 02:08:17;;;;;;;7.60;6.40;;;;;;;10.67;97.03;102074.19;5009008;28;20688;-45
2022/06/04 02:10:51;;;;;;;7.47;6.32;;;;;;;10.68;96.67;102064.34;5010431;28;20165;-46
2022/06/04 02:13:17;;;;;;;8.07;6.38;;;;;;;10.70;96.58;102075.94;5009890;28;20214;-44
2022/06/04 02:15:51;;;;;;;13.23;6.97;;;;;;;10.67;96.77;102055.44;5010281;28;20200;-45
2022/06/04 02:18:16;;;;;;;10.05;6.07;;;;;;;10.71;96.45;102059.81;5009751;28;20176;-46
2022/06/04 02:20:42;;;;;;;9.25;6.53;;;;;;;10.72;96.30;102061.59;5010647;28;20623;-48
2022/06/04 02:23:08;;;;;;;7.68;5.53;;;;;;;10.71;96.22;102057.16;5009629;28;20211;-48
2022/06/04 02:25:34;;;;;;;7.95;6.35;;;;;;;10.70;96.29;102057.16;5022618;28;20176;-48
2022/06/04 02:28:01;;;;;;;9.13;6.70;;;;;;;10.67;96.32;102057.19;5033960;28;20207;-46
2022/06/04 02:30:43;;;;;;;10.10;6.60;;;;;;;10.67;95.98;102052.75;5033819;28;20530;-43
2022/06/04 02:33:32;;;;;;;7.68;5.97;;;;;;;10.77;95.90;102057.94;5033672;28;20560;-45
2022/06/04 02:36:10;;;;;;;9.63;6.47;;;;;;;10.72;95.68;102053.53;5032428;28;20542;-44
2022/06/04 02:38:43;;;;;;;9.23;6.07;;;;;;;10.74;95.62;102064.25;5033829;28;20165;-45
2022/06/04 02:41:17;;;;;;;9.65;6.72;;;;;;;10.74;95.64;102055.31;5065628;28;20246;-48
2022/06/04 02:43:57;;;;;;;8.50;6.30;;;;;;;10.72;95.57;102047.31;5033559;28;20341;-49
2022/06/04 02:46:29;;;;;;;9.13;6.65;;;;;;;10.75;95.72;102043.66;5033120;28;20230;-45
2022/06/04 02:49:08;;;;;;;9.77;6.95;;;;;;;10.76;95.83;102050.78;5033267;28;20188;-46
2022/06/04 02:51:38;;;;;;;8.15;6.00;;;;;;;10.77;95.94;102052.56;5033199;28;20179;-45
2022/06/04 02:54:09;;;;;;;7.57;6.53;;;;;;;10.74;95.91;102047.28;5032762;28;20196;-45
2022/06/04 02:56:38;;;;;;;11.23;6.70;;;;;;;10.71;95.92;102037.47;5033112;28;20230;-44
2022/06/04 02:59:07;;;;;;;7.70;6.32;;;;;;;10.76;95.85;102051.69;5032868;28;20178;-43
2022/06/04 03:01:39;;;;;;;7.18;6.25;;;;;;;10.81;95.96;102049.78;5032992;28;20297;-44
2022/06/04 03:04:06;;;;;;;7.10;6.10;;;;;;;10.84;96.05;102051.53;5032090;28;20207;-44
2022/06/04 03:06:33;;;;;;;9.48;6.35;;;;;;;10.83;95.91;102055.13;5032727;28;20186;-42
2022/06/04 03:09:03;;;;;;;7.47;6.22;;;;;;;10.79;95.98;102064.16;5064626;28;20212;-43
2022/06/04 03:11:29;;;;;;;9.32;7.20;;;;;;;10.84;95.75;102070.28;5032581;28;20175;-41
2022/06/04 03:13:55;;;;;;;7.05;6.25;;;;;;;10.86;95.80;102063.97;5032710;28;20200;-43
2022/06/04 03:16:21;;;;;;;6.90;6.13;;;;;;;10.92;95.81;102057.63;5031679;28;20179;-41
2022/06/04 03:18:47;;;;;;;8.30;5.95;;;;;;;11.01;95.71;102053.88;5031469;28;20194;-42
2022/06/04 03:21:12;;;;;;;8.43;6.45;;;;;;;11.13;95.34;102059.00;5032508;28;20172;-41
2022/06/04 03:23:38;;;;;;;8.90;6.10;;;;;;;11.09;94.60;102063.53;5032211;28;20211;-42
2022/06/04 03:26:04;;;;;;;9.18;6.57;;;;;;;10.99;94.60;102075.34;5032310;28;20172;-42
2022/06/04 03:28:30;;;;;;;10.82;6.68;;;;;;;10.90;94.63;102079.09;5032023;28;20275;-43
2022/06/04 03:30:56;;;;;;;9.45;6.28;;;;;;;10.86;95.08;102071.16;5032063;28;20211;-42
2022/06/04 03:33:22;;;;;;;13.52;7.50;;;;;;;10.80;95.74;102079.31;5032047;28;20204;-44
2022/06/04 03:35:48;;;;;;;9.65;7.68;;;;;;;10.75;97.43;102070.47;5032052;28;20219;-43
2022/06/04 03:38:13;;;;;;;8.55;7.35;;;;;;;10.77;98.48;102080.25;5032292;28;20555;-42
2022/06/04 03:40:39;;;;;;;11.27;8.05;;;;;;;10.84;99.30;102076.53;5031848;28;20255;-42
2022/06/04 03:43:05;;;;;;;11.10;7.70;;;;;;;10.80;99.63;102080.22;5032045;28;20393;-44
2022/06/04 03:45:30;;;;;;;9.43;7.03;;;;;;;10.94;99.92;102087.97;5030788;28;20182;-43
2022/06/04 03:47:56;;;;;;;10.25;7.43;;;;;;;10.96;100.00;102087.97;5031802;28;20215;-45
2022/06/04 03:50:25;;;;;;;8.23;7.30;;;;;;;10.95;100.00;102095.09;5032526;28;20218;-43
2022/06/04 03:52:51;;;;;;;9.02;8.13;;;;;;;10.90;100.00;102103.22;5031946;28;20214;-41
2022/06/04 03:55:18;;;;;;;11.18;8.27;;;;;;;10.91;100.00;102098.75;5032182;28;20169;-44
2022/06/04 03:57:50;;;;;;;8.93;7.47;;;;;;;11.08;100.00;102096.63;5032647;28;20581;-42
2022/06/04 04:00:21;;;;;;;10.38;7.55;;;;;;;11.04;99.86;102099.41;5032115;28;20628;-44
2022/06/04 04:02:53;;;;;;;7.80;7.07;;;;;;;11.02;99.86;102099.44;5032115;28;20198;-41
2022/06/04 04:05:22;;;;;;;8.82;7.97;;;;;;;10.93;99.72;102095.16;5031798;28;20543;-44
2022/06/04 04:07:48;;;;;;;11.55;7.63;;;;;;;10.91;99.81;102098.75;5031899;28;20192;-45
2022/06/04 04:10:15;;;;;;;10.43;7.93;;;;;;;10.94;99.86;102093.34;5030851;28;20172;-42
2022/06/04 04:12:41;;;;;;;11.07;8.65;;;;;;;10.83;99.72;102096.22;5031575;28;20168;-41
2022/06/04 04:15:08;;;;;;;9.32;7.40;;;;;;;11.03;99.83;102098.53;5030682;28;20655;-43
2022/06/04 04:17:36;;;;;;;8.18;7.38;;;;;;;11.08;99.56;102099.31;5031713;28;20281;-42
2022/06/04 04:20:05;;;;;;;12.13;8.60;;;;;;;10.87;99.11;102103.31;5032110;28;20177;-45
2022/06/04 04:22:30;;;;;;;10.00;7.90;;;;;;;10.88;99.56;102094.34;5031620;28;20188;-44
2022/06/04 04:24:56;;;;;;;7.22;6.53;;;;;;;11.06;99.66;102095.78;5030135;28;20176;-42
2022/06/04 04:27:21;;;;;;;7.30;6.60;;;;;;;11.16;99.34;102104.53;5031704;28;20553;-44
2022/06/04 04:29:47;;;;;;;7.82;7.03;;;;;;;11.24;98.93;102099.91;5031490;28;20202;-42
2022/06/04 04:32:12;;;;;;;8.35;7.55;;;;;;;11.19;98.65;102106.25;5032098;28;20164;-45
2022/06/04 04:34:37;;;;;;;9.45;7.32;;;;;;;11.16;98.35;102104.53;5031260;28;20257;-44
2022/06/04 04:37:03;;;;;;;9.18;7.15;;;;;;;11.29;98.55;102097.13;5031441;28;20409;-42
2022/06/04 04:39:29;;;;;;;7.57;6.80;;;;;;;11.33;97.88;102102.38;5031638;28;20192;-46
2022/06/04 04:41:54;;;;;;;6.55;5.95;;;;;;;11.45;97.60;102111.97;5031257;28;20195;-46
2022/06/04 04:44:20;;;;;;;8.63;7.68;;;;;;;11.33;97.70;102106.88;5027558;28;20251;-45
2022/06/04 04:46:49;;;;;;;7.80;6.68;;;;;;;11.34;97.49;102114.00;5019930;28;20191;-43
2022/06/04 04:49:15;;;;;;;8.43;7.13;;;;;;;11.33;97.34;102107.75;5029753;28;20191;-43
2022/06/04 04:51:40;;;;;;;8.27;7.10;;;;;;;11.38;97.53;102106.78;5031162;28;20176;-44
2022/06/04 04:54:06;;;;;;;7.97;6.47;;;;;;;11.39;97.44;102105.84;5030727;28;20232;-42
2022/06/04 04:56:31;;;;;;;9.15;6.95;;;;;;;11.52;97.66;102105.56;5030749;28;20525;-44
2022/06/04 04:58:57;;;;;;;9.27;7.00;;;;;;;11.46;97.16;102110.19;5031097;28;20540;-46
2022/06/04 05:01:25;;;;;;;8.38;7.03;;;;;;;11.55;97.21;102102.81;5029599;28;20168;-43
2022/06/04 05:03:51;;;;;;;7.63;6.82;;;;;;;11.61;96.94;102099.13;5030893;28;20192;-46
2022/06/04 05:06:19;;;;;;;8.40;6.72;;;;;;;11.61;96.61;102095.53;5030804;28;20187;-45
2022/06/04 05:08:45;;;;;;;8.48;6.53;;;;;;;11.63;96.47;102091.91;5030794;28;20210;-43
2022/06/04 05:11:18;;;;;;;8.65;6.90;;;;;;;11.68;96.13;102095.38;5030792;28;20684;-43
2022/06/04 05:13:49;;;;;;;8.05;6.50;;;;;;;11.55;95.78;102109.97;5030277;28;20204;-44
2022/06/04 05:16:15;;;;;;;11.90;6.90;;;;;;;11.69;96.12;102105.16;5030972;28;20176;-45
2022/06/04 05:18:41;;;;;;;7.13;6.47;;;;;;;11.54;95.56;102109.09;5030849;28;20237;-44
2022/06/04 05:21:17;;;;;;;8.82;6.38;;;;;;;11.44;95.76;102125.44;5030519;28;20693;-43
2022/06/04 05:23:42;;;;;;;7.28;6.40;;;;;;;11.36;96.46;102114.84;5030204;28;20288;-44
2022/06/04 05:26:07;;;;;;;8.95;8.05;;;;;;;11.45;96.76;102130.75;5030562;28;20211;-42
2022/06/04 05:28:33;;;;;;;10.60;7.65;;;;;;;11.46;96.99;102124.47;5030474;28;20195;-43
2022/06/04 05:30:59;;;;;;;7.85;6.65;;;;;;;11.33;96.69;102126.53;5030537;28;20237;-46
2022/06/04 05:33:24;;;;;;;9.10;6.47;;;;;;;11.52;96.54;102124.34;5030106;28;20290;-45
2022/06/04 05:35:49;;;;;;;10.18;6.20;;;;;;;11.50;96.73;102120.81;5030225;28;20283;-45
2022/06/04 05:38:15;;;;;;;8.10;6.20;;;;;;;11.46;96.55;102124.47;5028921;28;20238;-45
2022/06/04 05:40:40;;;;;;;8.70;6.85;;;;;;;11.54;96.01;102121.63;5029146;28;20187;-45
2022/06/04 05:43:06;;;;;;;7.72;6.28;;;;;;;11.64;95.96;102119.63;5029945;28;20228;-44
2022/06/04 05:45:31;;;;;;;6.50;5.90;;;;;;;11.69;95.31;102126.66;5030310;28;20614;-41
2022/06/04 05:47:57;;;;;;;8.60;6.00;;;;;;;11.67;94.29;102117.75;5030180;28;20267;-44
2022/06/04 05:50:22;;;;;;;9.40;5.80;;;;;;;11.87;94.44;102117.31;5025649;28;20644;-44
2022/06/04 05:52:48;;;;;;;7.95;5.40;;;;;;;11.75;93.80;102117.59;5015892;28;20205;-41
2022/06/04 05:55:13;;;;;;;7.57;5.75;;;;;;;11.75;93.46;102112.22;5029730;28;20245;-44
2022/06/04 05:57:39;;;;;;;9.30;6.10;;;;;;;11.44;93.47;102129.00;5028813;28;20249;-44
2022/06/04 06:00:08;;;;;;;7.38;6.15;;;;;;;11.56;94.44;102122.47;5029913;28;20214;-45
2022/06/04 06:02:37;;;;;;;7.50;6.28;;;;;;;11.39;93.94;102130.91;5028204;28;20350;-42
2022/06/04 06:05:04;;;;;;;6.93;5.90;;;;;;;11.46;94.42;102131.66;5029832;28;20184;-44
2022/06/04 06:07:31;;;;;;;7.35;6.25;;;;;;;11.42;94.35;102129.94;5029558;28;20192;-45
2022/06/04 06:09:57;;;;;;;8.18;6.18;;;;;;;11.54;94.13;102129.66;5029520;28;20697;-41
2022/06/04 06:12:22;;;;;;;6.53;5.82;;;;;;;11.63;93.49;102137.56;5029932;28;20160;-45
2022/06/04 06:14:48;;;;;;;8.32;6.22;;;;;;;11.57;92.85;102140.34;5029370;28;20196;-44
2022/06/04 06:17:14;;;;;;;10.07;6.38;;;;;;;11.53;92.66;102146.72;5030087;28;20176;-42
2022/06/04 06:19:39;;;;;;;7.30;5.97;;;;;;;11.57;92.56;102147.50;5029696;28;20218;-44
2022/06/04 06:22:05;;;;;;;7.88;5.32;;;;;;;11.56;92.09;102152.00;5028623;28;20212;-48
2022/06/04 06:24:30;;;;;;;10.32;6.32;;;;;;;11.63;91.49;102155.44;5028934;28;20213;-49
2022/06/04 06:26:58;;;;;;;7.57;5.72;;;;;;;11.65;90.82;102146.41;5010119;28;20192;-48
2022/06/04 06:29:27;;;;;;;8.73;6.07;;;;;;;11.51;91.17;102151.22;5008726;28;20271;-47
2022/06/04 06:31:54;;;;;;;6.72;5.65;;;;;;;11.62;91.03;102159.94;5009934;28;20238;-48
2022/06/04 06:34:21;;;;;;;6.45;5.78;;;;;;;11.78;90.33;102165.84;5008361;28;20200;-49
2022/06/04 06:36:47;;;;;;;8.07;6.03;;;;;;;11.74;90.28;102161.44;5009958;28;20165;-47
2022/06/04 06:39:14;;;;;;;7.95;6.13;;;;;;;11.75;89.93;102156.06;5010552;28;20555;-48
2022/06/04 06:41:40;;;;;;;9.75;6.13;;;;;;;11.89;89.45;102163.81;5049382;28;20647;-48
2022/06/04 06:44:06;;;;;;;9.20;6.53;;;;;;;12.07;90.18;102156.28;5040224;28;20191;-49
2022/06/04 06:46:35;;;;;;;7.82;5.65;;;;;;;12.03;88.63;102163.53;5049150;28;20186;-47
2022/06/04 06:49:03;;;;;;;7.22;5.13;;;;;;;12.25;87.17;102155.84;5049008;28;20203;-46
2022/06/04 06:51:30;;;;;;;8.10;5.07;;;;;;;11.97;86.87;102152.06;5049228;28;20190;-47
2022/06/04 06:53:55;;;;;;;7.13;5.57;;;;;;;12.15;86.90;102156.97;5048634;28;20321;-49
2022/06/04 06:56:24;;;;;;;9.35;5.60;;;;;;;12.05;87.20;102163.50;5020519;28;20271;-47
2022/06/04 06:58:51;;;;;;;8.88;5.40;;;;;;;12.06;87.56;102158.09;5024283;28;20253;-48
2022/06/04 07:01:16;;;;;;;9.73;5.22;;;;;;;12.57;86.37;102165.81;5029134;28;20188;-47
2022/06/04 07:03:43;;;;;;;7.25;4.82;;;;;;;12.59;85.14;102160.38;5028999;28;20207;-48
2022/06/04 07:06:10;;;;;;;8.85;5.38;;;;;;;12.24;85.42;102163.94;5028671;28;20172;-48
2022/06/04 07:08:38;;;;;;;6.28;5.15;;;;;;;12.25;85.38;102163.03;5022121;28;20614;-46
2022/06/04 07:11:03;;;;;;;8.13;5.50;;;;;;;12.34;85.92;102169.06;5021173;28;21104;-46
2022/06/04 07:13:30;;;;;;;6.25;5.22;;;;;;;12.60;85.30;102164.84;5021642;28;20208;-47
2022/06/04 07:15:55;;;;;;;7.65;5.00;;;;;;;12.46;83.03;102165.22;5026040;28;20192;-46
2022/06/04 07:18:21;;;;;;;8.50;5.43;;;;;;;12.76;83.23;102168.91;5026905;28;20180;-46
2022/06/04 07:20:47;;;;;;;5.97;4.70;;;;;;;12.71;82.60;102164.59;5025488;28;20528;-46
2022/06/04 07:23:12;;;;;;;6.75;5.22;;;;;;;12.93;82.26;102151.47;5031888;28;20753;-46
2022/06/04 07:25:41;;;;;;;6.50;4.93;;;;;;;12.87;82.13;102162.38;5023805;28;20184;-45
2022/06/04 07:28:08;;;;;;;7.68;4.88;;;;;;;12.55;82.05;102161.38;5013022;28;20286;-46
2022/06/04 07:30:34;;;;;;;5.13;4.72;;;;;;;13.19;81.51;102161.50;5012771;28;20230;-45
2022/06/04 07:32:59;;;;;;;7.15;4.68;;;;;;;13.18;80.47;102157.03;5011984;28;20204;-45
2022/06/04 07:35:25;;;;;;;6.55;4.43;;;;;;;13.32;79.71;102173.72;5012608;28;20181;-46
2022/06/04 07:37:50;;;;;;;6.38;3.97;;;;;;;13.50;79.35;102179.50;5012878;28;20205;-46
2022/06/04 07:40:16;;;;;;;8.27;4.35;;;;;;;13.90;76.29;102175.63;5012866;28;20180;-45
2022/06/04 07:42:42;;;;;;;4.65;3.65;;;;;;;14.15;75.94;102171.25;5028576;28;20250;-48
2022/06/04 07:45:08;;;;;;;6.88;4.47;;;;;;;14.14;74.70;102176.69;5029805;28;20172;-47
2022/06/04 07:47:34;;;;;;;8.10;4.28;;;;;;;14.13;73.79;102170.41;5031559;28;20188;-46
2022/06/04 07:50:00;;;;;;;6.72;4.00;;;;;;;14.41;73.57;102173.09;5026689;28;20180;-47
2022/06/04 07:52:26;;;;;;;4.82;4.20;;;;;;;14.79;72.92;102167.38;5031696;28;20168;-48
2022/06/04 07:54:51;;;;;;;4.88;4.22;;;;;;;14.37;73.25;102178.66;5035218;28;20334;-46
2022/06/04 07:57:17;;;;;;;4.85;4.35;;;;;;;13.61;74.85;102188.16;5033554;28;20644;-46
2022/06/04 07:59:43;;;;;;;7.15;4.10;;;;;;;13.88;75.44;102186.44;5037890;28;20187;-44
2022/06/04 08:02:12;;;;;;;6.13;4.25;;;;;;;13.89;74.10;102185.53;5051724;28;20385;-45
2022/06/04 08:04:39;;;;;;;5.57;4.22;;;;;;;14.21;74.35;102180.94;5051444;28;20207;-44
2022/06/04 08:07:05;;;;;;;4.35;3.90;;;;;;;14.09;74.54;102184.91;5034918;28;20199;-40
2022/06/04 08:09:32;;;;;;;6.28;4.10;;;;;;;14.48;74.33;102189.97;5032414;28;20418;-43
2022/06/04 08:11:58;;;;;;;5.15;3.90;;;;;;;14.60;72.46;102181.47;5032177;28;20533;-45
2022/06/04 08:14:25;;;;;;;5.22;3.90;;;;;;;14.22;71.94;102188.97;5049032;28;20221;-44
2022/06/04 08:16:56;;;;;;;4.72;3.55;;;;;;;14.51;72.80;102191.69;5050433;28;20180;-44
2022/06/04 08:19:23;;;;;;;4.25;3.47;;;;;;;13.89;73.20;102192.75;5052036;28;20293;-43
2022/06/04 08:21:49;;;;;;;4.55;3.78;;;;;;;14.17;73.80;102190.97;5050780;28;20179;-44
2022/06/04 08:24:16;;;;;;;5.93;3.67;;;;;;;14.52;72.71;102197.03;5050819;28;20686;-45
2022/06/04 08:26:45;;;;;;;6.93;3.83;;;;;;;14.88;70.95;102185.94;5015128;28;20246;-47
2022/06/04 08:29:11;;;;;;;6.63;4.05;;;;;;;14.35;70.22;102208.34;5019975;28;20666;-44
2022/06/04 08:31:37;;;;;;;4.65;3.70;;;;;;;14.62;71.53;102205.72;5051580;28;20183;-43
2022/06/04 08:34:03;;;;;;;6.30;4.28;;;;;;;14.31;72.24;102208.50;5032116;28;20218;-42
2022/06/04 08:36:29;;;;;;;5.53;4.32;;;;;;;14.79;71.33;102210.56;5031083;28;20687;-40
2022/06/04 08:38:55;;;;;;;5.22;3.88;;;;;;;14.20;72.06;102220.50;5031924;28;20188;-43
2022/06/04 08:41:38;;;;;;;5.10;4.20;;;;;;;14.24;71.99;102215.03;5031260;28;20530;-42
2022/06/04 08:44:20;;;;;;;5.95;4.07;;;;;;;15.14;70.16;102201.25;5031549;28;20195;-44
2022/06/04 08:47:12;;;;;;;4.95;4.13;;;;;;;16.07;66.13;102198.72;5031435;28;20502;-44
2022/06/04 08:49:39;;;;;;;5.43;3.40;;;;;;;16.03;66.12;102194.38;5031568;28;20172;-43
2022/06/04 08:52:16;;;;;;;6.63;3.92;;;;;;;15.03;68.96;102200.75;5028799;28;20208;-41
2022/06/04 08:57:36;;;;;;;4.15;3.50;;;;;;;15.04;68.71;102213.28;5028760;28;20194;-43
2022/06/04 09:00:10;;;;;;;7.38;3.63;;;;;;;15.08;69.04;102209.53;5028960;28;20258;-44
2022/06/04 09:03:08;;;;;;;5.75;3.55;;;;;;;15.02;69.18;102209.75;5029290;28;20175;-43
2022/06/04 09:06:00;;;;;;;6.60;3.53;;;;;;;15.47;69.83;102216.28;5029544;28;20195;-43
2022/06/04 09:08:51;;;;;;;5.68;3.42;;;;;;;16.47;66.56;102210.63;5009888;28;20562;-45
2022/06/04 09:11:40;;;;;;;4.18;3.30;;;;;;;16.74;66.16;102205.91;5002660;28;20235;-43
2022/06/04 09:14:20;;;;;;;4.47;3.35;;;;;;;16.03;67.05;102218.72;5009326;28;20220;-46
2022/06/04 09:16:53;;;;;;;5.80;3.60;;;;;;;15.31;68.98;102226.78;5019009;28;20194;-44
2022/06/04 09:19:24;;;;;;;4.40;3.35;;;;;;;15.30;69.34;102225.88;5028993;28;20176;-47
2022/06/04 09:21:52;;;;;;;4.35;3.20;;;;;;;15.14;69.37;102228.22;5029615;28;20627;-44
2022/06/04 09:24:18;;;;;;;4.90;3.45;;;;;;;15.16;69.25;102236.28;5030265;28;20256;-46
2022/06/04 09:27:05;;;;;;;4.28;3.50;;;;;;;14.94;70.25;102250.50;5030998;28;20161;-47
2022/06/04 09:29:50;;;;;;;3.97;3.40;;;;;;;14.70;69.93;102251.34;5030494;28;20631;-46
2022/06/04 09:32:27;;;;;;;5.65;3.80;;;;;;;14.60;70.61;102251.63;5030571;28;20179;-48
2022/06/04 09:34:54;;;;;;;4.93;3.45;;;;;;;14.83;71.41;102247.31;5030453;28;20199;-47
2022/06/04 09:37:20;;;;;;;5.28;3.53;;;;;;;15.08;70.45;102246.47;5029235;28;20601;-47
2022/06/04 09:39:59;;;;;;;5.15;3.55;;;;;;;15.12;70.57;102246.31;5030580;28;20164;-46
2022/06/04 09:42:29;;;;;;;4.50;3.10;;;;;;;15.17;70.60;102252.41;5030363;28;20668;-48
2022/06/04 09:45:00;;;;;;;7.57;3.72;;;;;;;15.08;71.12;102252.72;5029035;28;20234;-45
2022/06/04 09:47:38;;;;;;;7.55;3.45;;;;;;;14.94;70.98;102249.63;5030275;28;20246;-44
2022/06/04 09:50:17;;;;;;;4.05;3.65;;;;;;;15.06;72.14;102261.81;5029944;28;20168;-46
2022/06/04 09:52:45;;;;;;;5.55;3.70;;;;;;;14.70;73.56;102276.50;5030204;28;20769;-46
2022/06/04 09:55:18;;;;;;;7.03;3.60;;;;;;;14.36;73.12;102266.72;5029869;28;20192;-48
2022/06/04 09:57:58;;;;;;;6.75;3.67;;;;;;;14.19;73.71;102263.66;5030343;28;20578;-48
2022/06/04 10:00:58;;;;;;;5.07;3.65;;;;;;;14.30;73.22;102256.16;5030230;28;20180;-45
2022/06/04 10:03:25;;;;;;;5.25;3.47;;;;;;;14.38;72.60;102270.25;5029771;28;20254;-45
2022/06/04 10:06:00;;;;;;;6.70;3.78;;;;;;;14.55;72.96;102268.91;5030144;28;20526;-48
2022/06/04 10:08:27;;;;;;;6.18;4.20;;;;;;;14.49;72.53;102263.66;5029619;28;20313;-45
2022/06/04 10:11:15;;;;;;;5.45;3.85;;;;;;;14.83;73.15;102261.66;5030186;28;20164;-45
2022/06/04 10:13:47;;;;;;;6.47;3.65;;;;;;;14.70;72.35;102273.78;5029633;28;20196;-45
2022/06/04 10:16:27;;;;;;;4.82;3.75;;;;;;;14.71;73.02;102277.38;5030167;28;20163;-46
2022/06/04 10:18:54;;;;;;;6.18;3.78;;;;;;;14.95;73.12;102281.06;5030181;28;20686;-48
2022/06/04 10:21:23;;;;;;;6.50;3.78;;;;;;;14.91;72.57;102272.22;5029995;28;20803;-48
2022/06/04 10:23:57;;;;;;;3.92;3.35;;;;;;;14.52;73.70;102282.41;5029765;28;20876;-47
2022/06/04 10:27:02;;;;;;;7.68;4.78;;;;;;;14.65;73.81;102282.94;5030096;28;20230;-48
2022/06/04 10:30:04;;;;;;;4.80;3.78;;;;;;;14.74;72.39;102280.00;5029515;28;20294;-47
2022/06/04 10:32:45;;;;;;;5.15;3.95;;;;;;;14.48;72.74;102278.09;5029691;28;20270;-47
2022/06/04 10:35:24;;;;;;;6.22;3.80;;;;;;;14.96;73.12;102272.06;5028880;28;20176;-43
2022/06/04 10:38:16;;;;;;;5.18;3.88;;;;;;;14.79;72.65;102273.50;5029698;28;20210;-47
2022/06/04 10:41:10;;;;;;;5.65;3.90;;;;;;;14.80;71.82;102275.28;5024913;28;20199;-48
2022/06/04 10:43:41;;;;;;;5.00;3.88;;;;;;;14.49;72.78;102274.44;5029441;28;20208;-50
2022/06/04 10:46:11;;;;;;;7.38;4.55;;;;;;;14.49;72.80;102285.22;5033334;28;20612;-50
2022/06/04 10:48:45;;;;;;;8.52;4.47;;;;;;;14.42;73.07;102284.53;5033296;28;20204;-47
2022/06/04 10:51:26;;;;;;;7.45;4.40;;;;;;;14.68;72.10;102278.34;5033610;28;20178;-47
2022/06/04 10:54:10;;;;;;;5.15;4.30;;;;;;;14.61;71.34;102276.78;5032666;28;20207;-50
2022/06/04 10:56:45;;;;;;;6.65;4.68;;;;;;;14.71;72.26;102280.94;5033292;28;20180;-48
2022/06/04 10:59:29;;;;;;;6.63;3.88;;;;;;;14.59;72.25;102273.25;5032909;28;20259;-50
2022/06/04 11:02:04;;;;;;;4.30;3.90;;;;;;;14.50;72.09;102273.53;5031093;28;20176;-48
2022/06/04 11:04:48;;;;;;;7.18;4.70;;;;;;;14.73;72.24;102260.19;5032494;28;20679;-48
2022/06/04 11:07:57;;;;;;;6.55;4.72;;;;;;;14.90;72.22;102270.44;5032308;28;20191;-48
2022/06/04 11:10:31;;;;;;;6.50;5.20;;;;;;;14.53;72.72;102266.19;5032536;28;20500;-49
2022/06/04 11:13:12;;;;;;;5.53;4.90;;;;;;;14.66;72.29;102273.94;5032375;28;20234;-49
2022/06/04 11:15:42;;;;;;;7.30;5.00;;;;;;;14.69;72.46;102282.81;5032504;28;20494;-46
2022/06/04 11:18:24;;;;;;;7.43;4.95;;;;;;;14.83;72.80;102271.59;5032808;28;20247;-47
2022/06/04 11:21:00;;;;;;;6.65;5.05;;;;;;;14.62;72.64;102267.75;5032998;28;20230;-48
2022/06/04 11:23:37;;;;;;;5.47;4.65;;;;;;;14.90;72.89;102262.34;5031973;28;20215;-48
2022/06/04 11:26:12;;;;;;;5.93;4.97;;;;;;;14.72;72.56;102253.06;5019948;28;20544;-46
2022/06/04 11:28:38;;;;;;;8.02;5.15;;;;;;;14.73;72.25;102245.81;5013104;28;20223;-49
2022/06/04 11:31:23;;;;;;;5.60;4.65;;;;;;;14.62;73.74;102254.28;5013366;28;20172;-47
2022/06/04 11:33:55;;;;;;;8.75;4.80;;;;;;;14.69;73.11;102246.84;5012317;28;20262;-47
2022/06/04 11:36:36;;;;;;;6.25;5.07;;;;;;;14.83;72.97;102248.19;5012073;28;20489;-49
2022/06/04 11:39:10;;;;;;;5.65;4.88;;;;;;;14.33;73.48;102244.38;5012717;28;20247;-50
2022/06/04 11:41:46;;;;;;;8.52;5.60;;;;;;;14.70;73.84;102238.72;5012771;28;20644;-50
2022/06/04 11:44:33;;;;;;;6.18;4.65;;;;;;;14.32;73.86;102248.00;5011967;28;20248;-46
2022/06/04 11:47:17;;;;;;;6.18;5.18;;;;;;;14.43;73.58;102249.44;5012710;28;20169;-49
2022/06/04 11:49:55;;;;;;;6.25;5.22;;;;;;;14.36;73.84;102244.28;5012699;28;20254;-47